sensor_id;sensor_type;location;lat;lon;timestamp;pressure;altitude;pressure_sealevel;temperature;humidity
9110;BME280;4590;51.462;6.692;2023-07-20T00:00:33;101160.00;;;20.77;55.82
9110;BME280;4590;51.462;6.692;2023-07-20T00:03:13;101159.81;;;20.70;56.19
9110;BME280;4590;51.462;6.692;2023-07-20T00:05:42;101156.31;;;20.73;56.37
9110;BME280;4590;51.462;6.692;2023-07-20T00:08:08;101159.81;;;20.70;56.02
9110;BME280;4590;51.462;6.692;2023-07-20T00:10:33;101159.00;;;20.69;55.92
9110;BME280;4590;51.462;6.692;2023-07-20T00:12:58;101152.81;;;20.60;57.00
9110;BME280;4590;51.462;6.692;2023-07-20T00:15:23;101147.75;;;20.65;56.21
9110;BME280;4590;51.462;6.692;2023-07-20T00:17:49;101150.91;;;20.64;56.50
9110;BME280;4590;51.462;6.692;2023-07-20T00:20:14;101155.53;;;20.56;57.67
9110;BME280;4590;51.462;6.692;2023-07-20T00:22:39;101148.09;;;20.64;56.30
9110;BME280;4590;51.462;6.692;2023-07-20T00:25:05;101147.66;;;20.62;56.39
9110;BME280;4590;51.462;6.692;2023-07-20T00:27:30;101153.25;;;20.62;56.30
9110;BME280;4590;51.462;6.692;2023-07-20T00:29:55;101137.84;;;20.52;57.62
9110;BME280;4590;51.462;6.692;2023-07-20T00:32:21;101143.63;;;20.59;56.33
9110;BME280;4590;51.462;6.692;2023-07-20T00:34:46;101135.22;;;20.59;56.27
9110;BME280;4590;51.462;6.692;2023-07-20T00:37:12;101140.19;;;20.50;57.69
9110;BME280;4590;51.462;6.692;2023-07-20T00:39:37;101136.41;;;20.58;56.57
9110;BME280;4590;51.462;6.692;2023-07-20T00:42:03;101127.56;;;20.56;56.27
9110;BME280;4590;51.462;6.692;2023-07-20T00:44:28;101135.50;;;20.54;56.49
9110;BME280;4590;51.462;6.692;2023-07-20T00:46:53;101135.50;;;20.54;56.92
9110;BME280;4590;51.462;6.692;2023-07-20T00:49:19;101139.47;;;20.53;57.06
9110;BME280;4590;51.462;6.692;2023-07-20T00:51:47;101144.25;;;20.53;57.26
9110;BME280;4590;51.462;6.692;2023-07-20T00:54:15;101141.81;;;20.51;57.23
9110;BME280;4590;51.462;6.692;2023-07-20T00:56:40;101143.34;;;20.49;57.38
9110;BME280;4590;51.462;6.692;2023-07-20T00:59:05;101143.66;;;20.44;56.86
9110;BME280;4590;51.462;6.692;2023-07-20T01:01:31;101140.78;;;20.40;57.16
9110;BME280;4590;51.462;6.692;2023-07-20T01:03:57;101148.69;;;20.38;57.19
9110;BME280;4590;51.462;6.692;2023-07-20T01:06:41;101145.34;;;20.32;57.62
9110;BME280;4590;51.462;6.692;2023-07-20T01:09:14;101143.66;;;20.28;57.17
9110;BME280;4590;51.462;6.692;2023-07-20T01:12:07;101141.03;;;20.19;57.93
9110;BME280;4590;51.462;6.692;2023-07-20T01:14:34;101142.75;;;20.24;57.41
9110;BME280;4590;51.462;6.692;2023-07-20T01:17:01;101143.91;;;20.23;57.61
9110;BME280;4590;51.462;6.692;2023-07-20T01:19:26;101140.31;;;20.22;58.01
9110;BME280;4590;51.462;6.692;2023-07-20T01:25:21;101153.22;;;20.11;57.90
9110;BME280;4590;51.462;6.692;2023-07-20T01:31:11;101141.38;;;20.02;58.27
9110;BME280;4590;51.462;6.692;2023-07-20T01:33:38;101149.88;;;20.06;58.60
9110;BME280;4590;51.462;6.692;2023-07-20T01:36:06;101143.00;;;20.03;59.39
9110;BME280;4590;51.462;6.692;2023-07-20T01:38:32;101147.34;;;20.01;59.94
9110;BME280;4590;51.462;6.692;2023-07-20T01:40:57;101135.63;;;19.95;60.44
9110;BME280;4590;51.462;6.692;2023-07-20T01:43:23;101137.06;;;19.89;60.81
9110;BME280;4590;51.462;6.692;2023-07-20T01:45:48;101136.50;;;19.83;61.51
9110;BME280;4590;51.462;6.692;2023-07-20T01:48:14;101134.47;;;19.80;61.87
9110;BME280;4590;51.462;6.692;2023-07-20T01:50:39;101131.22;;;19.78;61.99
9110;BME280;4590;51.462;6.692;2023-07-20T01:53:04;101136.00;;;19.78;62.67
9110;BME280;4590;51.462;6.692;2023-07-20T01:55:29;101134.38;;;19.77;62.90
9110;BME280;4590;51.462;6.692;2023-07-20T01:57:55;101133.56;;;19.76;62.88
9110;BME280;4590;51.462;6.692;2023-07-20T02:00:20;101138.31;;;19.76;63.28
9110;BME280;4590;51.462;6.692;2023-07-20T02:02:49;101141.94;;;19.76;63.33
9110;BME280;4590;51.462;6.692;2023-07-20T02:05:14;101139.13;;;19.76;63.81
9110;BME280;4590;51.462;6.692;2023-07-20T02:07:39;101141.94;;;19.76;63.95
9110;BME280;4590;51.462;6.692;2023-07-20T02:10:05;101142.38;;;19.78;64.21
9110;BME280;4590;51.462;6.692;2023-07-20T02:12:30;101154.38;;;19.79;64.47
9110;BME280;4590;51.462;6.692;2023-07-20T02:14:56;101139.59;;;19.78;64.78
9110;BME280;4590;51.462;6.692;2023-07-20T02:17:21;101141.22;;;19.79;64.81
9110;BME280;4590;51.462;6.692;2023-07-20T02:19:50;101155.19;;;19.79;64.80
9110;BME280;4590;51.462;6.692;2023-07-20T02:22:15;101161.13;;;19.78;65.02
9110;BME280;4590;51.462;6.692;2023-07-20T02:24:41;101151.47;;;19.75;65.15
9110;BME280;4590;51.462;6.692;2023-07-20T02:27:07;101152.53;;;19.71;65.18
9110;BME280;4590;51.462;6.692;2023-07-20T02:29:32;101150.09;;;19.69;65.55
9110;BME280;4590;51.462;6.692;2023-07-20T02:31:57;101148.47;;;19.68;65.94
9110;BME280;4590;51.462;6.692;2023-07-20T02:34:23;101150.84;;;19.66;66.05
9110;BME280;4590;51.462;6.692;2023-07-20T02:36:48;101141.66;;;19.66;65.97
9110;BME280;4590;51.462;6.692;2023-07-20T02:39:14;101141.66;;;19.66;66.38
9110;BME280;4590;51.462;6.692;2023-07-20T02:41:39;101159.22;;;19.66;65.99
9110;BME280;4590;51.462;6.692;2023-07-20T02:44:04;101142.81;;;19.65;66.33
9110;BME280;4590;51.462;6.692;2023-07-20T02:46:29;101143.63;;;19.65;66.43
9110;BME280;4590;51.462;6.692;2023-07-20T02:48:55;101144.81;;;19.64;66.45
9110;BME280;4590;51.462;6.692;2023-07-20T02:51:20;101151.19;;;19.65;66.65
9110;BME280;4590;51.462;6.692;2023-07-20T02:53:45;101151.19;;;19.65;66.94
9110;BME280;4590;51.462;6.692;2023-07-20T02:56:11;101155.63;;;19.66;66.88
9110;BME280;4590;51.462;6.692;2023-07-20T02:58:40;101158.75;;;19.64;67.01
9110;BME280;4590;51.462;6.692;2023-07-20T03:01:08;101161.19;;;19.66;67.19
9110;BME280;4590;51.462;6.692;2023-07-20T03:03:35;101150.03;;;19.66;67.02
9110;BME280;4590;51.462;6.692;2023-07-20T03:06:06;101158.06;;;19.67;67.15
9110;BME280;4590;51.462;6.692;2023-07-20T03:08:33;101165.22;;;19.68;67.61
9110;BME280;4590;51.462;6.692;2023-07-20T03:10:59;101162.81;;;19.67;67.10
9110;BME280;4590;51.462;6.692;2023-07-20T03:13:24;101155.97;;;19.64;67.32
9110;BME280;4590;51.462;6.692;2023-07-20T03:15:49;101162.72;;;19.63;67.34
9110;BME280;4590;51.462;6.692;2023-07-20T03:18:14;101159.81;;;19.59;67.21
9110;BME280;4590;51.462;6.692;2023-07-20T03:20:40;101175.75;;;19.59;67.62
9110;BME280;4590;51.462;6.692;2023-07-20T03:23:05;101168.91;;;19.56;67.51
9110;BME280;4590;51.462;6.692;2023-07-20T03:25:30;101172.50;;;19.57;67.43
9110;BME280;4590;51.462;6.692;2023-07-20T03:27:56;101165.31;;;19.56;67.70
9110;BME280;4590;51.462;6.692;2023-07-20T03:30:21;101162.88;;;19.54;67.78
9110;BME280;4590;51.462;6.692;2023-07-20T03:32:48;101172.41;;;19.53;67.88
9110;BME280;4590;51.462;6.692;2023-07-20T03:35:13;101168.81;;;19.53;68.15
9110;BME280;4590;51.462;6.692;2023-07-20T03:37:40;101178.00;;;19.53;68.49
9110;BME280;4590;51.462;6.692;2023-07-20T03:40:06;101169.19;;;19.51;68.29
9110;BME280;4590;51.462;6.692;2023-07-20T03:42:32;101182.31;;;19.51;67.98
9110;BME280;4590;51.462;6.692;2023-07-20T03:44:58;101182.69;;;19.49;68.27
9110;BME280;4590;51.462;6.692;2023-07-20T03:47:23;101186.59;;;19.48;68.10
9110;BME280;4590;51.462;6.692;2023-07-20T03:49:49;101182.19;;;19.47;68.10
9110;BME280;4590;51.462;6.692;2023-07-20T03:52:14;101184.06;;;19.43;68.15
9110;BME280;4590;51.462;6.692;2023-07-20T03:54:40;101188.47;;;19.44;68.16
9110;BME280;4590;51.462;6.692;2023-07-20T03:57:05;101175.59;;;19.40;68.69
9110;BME280;4590;51.462;6.692;2023-07-20T03:59:30;101184.31;;;19.38;68.72
9110;BME280;4590;51.462;6.692;2023-07-20T04:01:56;101186.28;;;19.38;68.82
9110;BME280;4590;51.462;6.692;2023-07-20T04:04:21;101183.84;;;19.36;68.94
9110;BME280;4590;51.462;6.692;2023-07-20T04:06:46;101189.81;;;19.35;68.76
9110;BME280;4590;51.462;6.692;2023-07-20T04:09:12;101192.13;;;19.33;68.91
9110;BME280;4590;51.462;6.692;2023-07-20T04:11:38;101184.94;;;19.32;68.74
9110;BME280;4590;51.462;6.692;2023-07-20T04:14:03;101182.84;;;19.28;68.39
9110;BME280;4590;51.462;6.692;2023-07-20T04:16:28;101183.19;;;19.27;68.46
9110;BME280;4590;51.462;6.692;2023-07-20T04:18:57;101191.91;;;19.25;68.45
9110;BME280;4590;51.462;6.692;2023-07-20T04:21:22;101196.69;;;19.25;68.19
9110;BME280;4590;51.462;6.692;2023-07-20T04:23:48;101194.16;;;19.20;68.15
9110;BME280;4590;51.462;6.692;2023-07-20T04:26:13;101196.13;;;19.19;68.45
9110;BME280;4590;51.462;6.692;2023-07-20T04:28:40;101194.88;;;19.17;68.49
9110;BME280;4590;51.462;6.692;2023-07-20T04:31:12;101194.06;;;19.16;68.46
9110;BME280;4590;51.462;6.692;2023-07-20T04:33:39;101202.06;;;19.18;68.83
9110;BME280;4590;51.462;6.692;2023-07-20T04:36:04;101198.81;;;19.16;69.00
9110;BME280;4590;51.462;6.692;2023-07-20T04:38:30;101201.59;;;19.16;68.64
9110;BME280;4590;51.462;6.692;2023-07-20T04:40:55;101199.63;;;19.16;68.90
9110;BME280;4590;51.462;6.692;2023-07-20T04:43:20;101210.44;;;19.18;68.76
9110;BME280;4590;51.462;6.692;2023-07-20T04:45:46;101209.28;;;19.19;68.81
9110;BME280;4590;51.462;6.692;2023-07-20T04:48:16;101218.47;;;19.19;68.86
9110;BME280;4590;51.462;6.692;2023-07-20T04:50:42;101218.88;;;19.21;68.90
9110;BME280;4590;51.462;6.692;2023-07-20T04:53:10;101220.31;;;19.15;70.21
9110;BME280;4590;51.462;6.692;2023-07-20T04:55:37;101224.03;;;19.19;68.81
9110;BME280;4590;51.462;6.692;2023-07-20T04:58:03;101220.44;;;19.19;68.63
9110;BME280;4590;51.462;6.692;2023-07-20T05:00:29;101220.78;;;19.17;68.66
9110;BME280;4590;51.462;6.692;2023-07-20T05:02:55;101216.38;;;19.16;68.80
9110;BME280;4590;51.462;6.692;2023-07-20T05:05:21;101220.78;;;19.17;69.18
9110;BME280;4590;51.462;6.692;2023-07-20T05:07:46;101219.63;;;19.18;68.92
9110;BME280;4590;51.462;6.692;2023-07-20T05:10:11;101226.00;;;19.19;69.36
9110;BME280;4590;51.462;6.692;2023-07-20T05:12:36;101224.03;;;19.19;69.18
9110;BME280;4590;51.462;6.692;2023-07-20T05:15:02;101223.66;;;19.21;69.30
9110;BME280;4590;51.462;6.692;2023-07-20T05:17:28;101224.47;;;19.21;68.99
9110;BME280;4590;51.462;6.692;2023-07-20T05:19:53;101231.69;;;19.22;69.23
9110;BME280;4590;51.462;6.692;2023-07-20T05:22:19;101228.88;;;19.22;69.02
9110;BME280;4590;51.462;6.692;2023-07-20T05:24:44;101233.31;;;19.23;68.89
9110;BME280;4590;51.462;6.692;2023-07-20T05:27:09;101242.03;;;19.22;68.67
9110;BME280;4590;51.462;6.692;2023-07-20T05:29:35;101234.38;;;19.19;68.40
9110;BME280;4590;51.462;6.692;2023-07-20T05:32:00;101239.84;;;19.15;68.16
9110;BME280;4590;51.462;6.692;2023-07-20T05:34:25;101238.56;;;19.13;68.34
9110;BME280;4590;51.462;6.692;2023-07-20T05:36:50;101231.81;;;19.14;68.37
9110;BME280;4590;51.462;6.692;2023-07-20T05:39:17;101235.91;;;19.16;68.52
9110;BME280;4590;51.462;6.692;2023-07-20T05:41:42;101237.25;;;19.22;68.52
9110;BME280;4590;51.462;6.692;2023-07-20T05:44:08;101242.94;;;19.26;68.38
9110;BME280;4590;51.462;6.692;2023-07-20T05:46:33;101243.88;;;19.30;68.05
9110;BME280;4590;51.462;6.692;2023-07-20T05:48:58;101251.09;;;19.31;67.66
9110;BME280;4590;51.462;6.692;2023-07-20T05:51:23;101244.56;;;19.27;67.42
9110;BME280;4590;51.462;6.692;2023-07-20T05:53:49;101249.34;;;19.26;67.43
9110;BME280;4590;51.462;6.692;2023-07-20T05:56:14;101249.81;;;19.28;67.85
9110;BME280;4590;51.462;6.692;2023-07-20T05:58:40;101243.53;;;19.32;67.94
9110;BME280;4590;51.462;6.692;2023-07-20T06:01:05;101256.41;;;19.36;68.11
9110;BME280;4590;51.462;6.692;2023-07-20T06:03:31;101252.09;;;19.39;70.01
9110;BME280;4590;51.462;6.692;2023-07-20T06:06:01;101255.19;;;19.61;68.32
9110;BME280;4590;51.462;6.692;2023-07-20T06:08:31;101257.41;;;19.84;67.75
9110;BME280;4590;51.462;6.692;2023-07-20T06:10:56;101267.72;;;19.95;67.87
9110;BME280;4590;51.462;6.692;2023-07-20T06:13:22;101257.22;;;20.20;67.41
9110;BME280;4590;51.462;6.692;2023-07-20T06:15:47;101262.22;;;20.43;67.29
9110;BME280;4590;51.462;6.692;2023-07-20T06:18:13;101259.59;;;20.65;66.93
9110;BME280;4590;51.462;6.692;2023-07-20T06:20:38;101267.06;;;20.77;66.15
9110;BME280;4590;51.462;6.692;2023-07-20T06:23:03;101270.44;;;21.02;65.78
9110;BME280;4590;51.462;6.692;2023-07-20T06:25:28;101275.03;;;21.10;64.83
9110;BME280;4590;51.462;6.692;2023-07-20T06:27:55;101266.41;;;21.34;64.33
9110;BME280;4590;51.462;6.692;2023-07-20T06:30:21;101275.84;;;21.46;63.57
9110;BME280;4590;51.462;6.692;2023-07-20T06:32:46;101266.56;;;21.42;62.32
9110;BME280;4590;51.462;6.692;2023-07-20T06:35:11;101274.47;;;21.55;62.77
9110;BME280;4590;51.462;6.692;2023-07-20T06:37:37;101275.28;;;21.56;62.18
9110;BME280;4590;51.462;6.692;2023-07-20T06:40:03;101273.34;;;21.79;62.39
9110;BME280;4590;51.462;6.692;2023-07-20T06:42:31;101275.25;;;21.94;61.75
9110;BME280;4590;51.462;6.692;2023-07-20T06:44:57;101277.78;;;21.99;60.44
9110;BME280;4590;51.462;6.692;2023-07-20T06:47:22;101282.00;;;22.32;61.40
9110;BME280;4590;51.462;6.692;2023-07-20T06:49:47;101282.13;;;22.39;57.85
9110;BME280;4590;51.462;6.692;2023-07-20T06:52:12;101276.13;;;22.63;59.46
9110;BME280;4590;51.462;6.692;2023-07-20T06:54:38;101279.38;;;22.65;57.24
9110;BME280;4590;51.462;6.692;2023-07-20T06:57:04;101271.44;;;22.94;59.25
9110;BME280;4590;51.462;6.692;2023-07-20T06:59:30;101270.94;;;23.15;58.81
9110;BME280;4590;51.462;6.692;2023-07-20T07:01:55;101274.41;;;23.34;58.29
9110;BME280;4590;51.462;6.692;2023-07-20T07:04:21;101277.56;;;23.56;57.29
9110;BME280;4590;51.462;6.692;2023-07-20T07:06:46;101277.41;;;23.75;56.75
9110;BME280;4590;51.462;6.692;2023-07-20T07:09:11;101280.06;;;23.98;57.12
9110;BME280;4590;51.462;6.692;2023-07-20T07:11:37;101279.56;;;24.26;56.05
9110;BME280;4590;51.462;6.692;2023-07-20T07:14:02;101274.25;;;24.54;55.52
9110;BME280;4590;51.462;6.692;2023-07-20T07:16:28;101290.53;;;24.82;54.65
9110;BME280;4590;51.462;6.692;2023-07-20T07:18:53;101288.31;;;25.02;52.71
9110;BME280;4590;51.462;6.692;2023-07-20T07:21:18;101295.50;;;24.96;51.52
9110;BME280;4590;51.462;6.692;2023-07-20T07:23:44;101292.13;;;24.79;51.38
9110;BME280;4590;51.462;6.692;2023-07-20T07:26:10;101293.59;;;24.63;51.13
9110;BME280;4590;51.462;6.692;2023-07-20T07:28:36;101301.19;;;24.55;50.98
9110;BME280;4590;51.462;6.692;2023-07-20T07:31:05;101295.91;;;24.50;51.05
9110;BME280;4590;51.462;6.692;2023-07-20T07:33:31;101299.94;;;24.56;51.20
9110;BME280;4590;51.462;6.692;2023-07-20T07:35:56;101305.31;;;24.72;50.45
9110;BME280;4590;51.462;6.692;2023-07-20T07:38:21;101303.38;;;24.79;50.51
9110;BME280;4590;51.462;6.692;2023-07-20T07:40:47;101305.50;;;24.93;50.67
9110;BME280;4590;51.462;6.692;2023-07-20T07:43:12;101306.00;;;25.06;50.67
9110;BME280;4590;51.462;6.692;2023-07-20T07:45:39;101305.72;;;25.18;49.83
9110;BME280;4590;51.462;6.692;2023-07-20T07:48:05;101313.78;;;25.23;49.28
9110;BME280;4590;51.462;6.692;2023-07-20T07:50:30;101310.94;;;25.20;48.55
9110;BME280;4590;51.462;6.692;2023-07-20T07:52:56;101317.38;;;25.20;48.69
9110;BME280;4590;51.462;6.692;2023-07-20T07:55:21;101323.41;;;25.22;47.88
9110;BME280;4590;51.462;6.692;2023-07-20T07:57:46;101319.03;;;25.25;47.85
9110;BME280;4590;51.462;6.692;2023-07-20T08:00:13;101328.34;;;25.32;47.83
9110;BME280;4590;51.462;6.692;2023-07-20T08:02:40;101317.56;;;25.52;48.05
9110;BME280;4590;51.462;6.692;2023-07-20T08:05:06;101329.38;;;25.72;46.94
9110;BME280;4590;51.462;6.692;2023-07-20T08:07:32;101322.56;;;25.83;46.98
9110;BME280;4590;51.462;6.692;2023-07-20T08:09:57;101332.72;;;25.95;46.86
9110;BME280;4590;51.462;6.692;2023-07-20T08:12:22;101335.16;;;26.07;46.84
9110;BME280;4590;51.462;6.692;2023-07-20T08:14:48;101327.59;;;26.33;45.90
9110;BME280;4590;51.462;6.692;2023-07-20T08:17:13;101330.47;;;26.58;45.37
9110;BME280;4590;51.462;6.692;2023-07-20T08:19:39;101329.66;;;26.78;45.09
9110;BME280;4590;51.462;6.692;2023-07-20T08:22:06;101323.63;;;26.83;43.88
9110;BME280;4590;51.462;6.692;2023-07-20T08:24:32;101326.03;;;26.85;44.37
9110;BME280;4590;51.462;6.692;2023-07-20T08:26:57;101325.66;;;26.94;44.72
9110;BME280;4590;51.462;6.692;2023-07-20T08:29:23;101330.91;;;27.06;44.30
9110;BME280;4590;51.462;6.692;2023-07-20T08:31:49;101325.22;;;27.13;44.01
9110;BME280;4590;51.462;6.692;2023-07-20T08:34:14;101333.31;;;27.21;43.45
9110;BME280;4590;51.462;6.692;2023-07-20T08:36:39;101332.88;;;27.34;43.87
9110;BME280;4590;51.462;6.692;2023-07-20T08:39:05;101340.09;;;27.45;43.33
9110;BME280;4590;51.462;6.692;2023-07-20T08:41:30;101336.06;;;27.64;43.07
9110;BME280;4590;51.462;6.692;2023-07-20T08:43:56;101337.22;;;27.74;41.93
9110;BME280;4590;51.462;6.692;2023-07-20T08:46:23;101336.00;;;27.82;41.66
9110;BME280;4590;51.462;6.692;2023-07-20T08:48:50;101336.34;;;27.94;41.71
9110;BME280;4590;51.462;6.692;2023-07-20T08:51:16;101337.88;;;28.10;41.04
9110;BME280;4590;51.462;6.692;2023-07-20T08:53:44;101336.22;;;28.23;39.35
9110;BME280;4590;51.462;6.692;2023-07-20T08:56:10;101333.75;;;28.28;39.02
9110;BME280;4590;51.462;6.692;2023-07-20T08:58:37;101340.25;;;28.18;38.36
9110;BME280;4590;51.462;6.692;2023-07-20T09:01:04;101328.19;;;28.04;38.57
9110;BME280;4590;51.462;6.692;2023-07-20T09:03:30;101336.34;;;27.91;38.68
9110;BME280;4590;51.462;6.692;2023-07-20T09:05:55;101334.75;;;27.86;39.07
9110;BME280;4590;51.462;6.692;2023-07-20T09:08:20;101337.94;;;27.96;39.69
9110;BME280;4590;51.462;6.692;2023-07-20T09:10:46;101329.78;;;28.12;39.37
9110;BME280;4590;51.462;6.692;2023-07-20T09:13:15;101328.50;;;28.27;39.31
9110;BME280;4590;51.462;6.692;2023-07-20T09:15:52;101326.50;;;28.27;38.91
9110;BME280;4590;51.462;6.692;2023-07-20T09:18:28;101339.88;;;28.16;38.58
9110;BME280;4590;51.462;6.692;2023-07-20T09:21:03;101331.88;;;28.01;38.32
9110;BME280;4590;51.462;6.692;2023-07-20T09:23:37;101339.66;;;27.72;37.54
9110;BME280;4590;51.462;6.692;2023-07-20T09:26:12;101334.84;;;27.62;38.48
9110;BME280;4590;51.462;6.692;2023-07-20T09:28:54;101333.25;;;27.50;36.88
9110;BME280;4590;51.462;6.692;2023-07-20T09:31:22;101334.06;;;27.40;37.46
9110;BME280;4590;51.462;6.692;2023-07-20T09:33:48;101334.13;;;27.22;37.56
9110;BME280;4590;51.462;6.692;2023-07-20T09:36:14;101328.47;;;27.15;38.04
9110;BME280;4590;51.462;6.692;2023-07-20T09:38:42;101329.69;;;27.17;37.43
9110;BME280;4590;51.462;6.692;2023-07-20T09:41:13;101330.06;;;27.27;37.81
9110;BME280;4590;51.462;6.692;2023-07-20T09:43:39;101325.16;;;27.48;37.59
9110;BME280;4590;51.462;6.692;2023-07-20T09:46:05;101316.25;;;27.68;37.89
9110;BME280;4590;51.462;6.692;2023-07-20T09:48:30;101312.13;;;27.86;37.64
9110;BME280;4590;51.462;6.692;2023-07-20T09:50:55;101320.63;;;27.83;36.46
9110;BME280;4590;51.462;6.692;2023-07-20T09:53:23;101314.66;;;27.63;36.69
9110;BME280;4590;51.462;6.692;2023-07-20T09:55:49;101313.84;;;27.52;37.37
9110;BME280;4590;51.462;6.692;2023-07-20T09:58:15;101310.22;;;27.58;37.71
9110;BME280;4590;51.462;6.692;2023-07-20T10:00:42;101318.63;;;27.73;37.27
9110;BME280;4590;51.462;6.692;2023-07-20T10:03:14;101310.97;;;27.73;36.20
9110;BME280;4590;51.462;6.692;2023-07-20T10:05:45;101319.88;;;27.68;36.21
9110;BME280;4590;51.462;6.692;2023-07-20T10:08:12;101321.44;;;27.80;37.10
9110;BME280;4590;51.462;6.692;2023-07-20T10:10:40;101315.31;;;27.96;36.06
9110;BME280;4590;51.462;6.692;2023-07-20T10:13:10;101318.16;;;27.92;34.72
9110;BME280;4590;51.462;6.692;2023-07-20T10:15:50;101314.16;;;27.86;33.97
9110;BME280;4590;51.462;6.692;2023-07-20T10:18:35;101318.22;;;27.81;34.50
9110;BME280;4590;51.462;6.692;2023-07-20T10:21:07;101316.19;;;27.85;34.40
9110;BME280;4590;51.462;6.692;2023-07-20T10:23:34;101308.13;;;27.80;34.84
9110;BME280;4590;51.462;6.692;2023-07-20T10:26:01;101316.59;;;27.84;34.92
9110;BME280;4590;51.462;6.692;2023-07-20T10:28:27;101309.69;;;27.88;34.97
9110;BME280;4590;51.462;6.692;2023-07-20T10:30:53;101307.22;;;27.98;35.02
9110;BME280;4590;51.462;6.692;2023-07-20T10:33:18;101306.34;;;28.11;34.57
9110;BME280;4590;51.462;6.692;2023-07-20T10:35:56;101305.06;;;28.26;33.96
9110;BME280;4590;51.462;6.692;2023-07-20T10:41:28;101300.53;;;28.40;33.41
9110;BME280;4590;51.462;6.692;2023-07-20T10:44:05;101294.94;;;28.33;33.31
9110;BME280;4590;51.462;6.692;2023-07-20T10:46:42;101298.25;;;28.17;33.79
9110;BME280;4590;51.462;6.692;2023-07-20T10:49:09;101292.63;;;28.03;33.86
9110;BME280;4590;51.462;6.692;2023-07-20T10:51:59;101291.56;;;27.72;32.46
9110;BME280;4590;51.462;6.692;2023-07-20T10:56:52;101287.97;;;27.68;34.95
9110;BME280;4590;51.462;6.692;2023-07-20T10:59:19;101291.22;;;27.66;34.09
9110;BME280;4590;51.462;6.692;2023-07-20T11:01:45;101286.38;;;27.67;34.39
9110;BME280;4590;51.462;6.692;2023-07-20T11:04:12;101277.09;;;27.63;33.87
9110;BME280;4590;51.462;6.692;2023-07-20T11:06:37;101275.06;;;27.59;33.74
9110;BME280;4590;51.462;6.692;2023-07-20T11:09:12;101276.69;;;27.61;34.04
9110;BME280;4590;51.462;6.692;2023-07-20T11:11:41;101266.97;;;27.69;33.68
9110;BME280;4590;51.462;6.692;2023-07-20T11:14:20;101278.22;;;27.83;34.07
9110;BME280;4590;51.462;6.692;2023-07-20T11:16:47;101263.19;;;28.00;34.03
9110;BME280;4590;51.462;6.692;2023-07-20T11:19:21;101267.53;;;28.12;33.33
9110;BME280;4590;51.462;6.692;2023-07-20T11:21:56;101263.03;;;28.18;32.92
9110;BME280;4590;51.462;6.692;2023-07-20T11:24:22;101260.66;;;28.13;33.08
9110;BME280;4590;51.462;6.692;2023-07-20T11:26:52;101273.31;;;27.94;32.93
9110;BME280;4590;51.462;6.692;2023-07-20T11:29:19;101266.19;;;27.61;33.63
9110;BME280;4590;51.462;6.692;2023-07-20T11:31:46;101263.84;;;27.38;33.69
9110;BME280;4590;51.462;6.692;2023-07-20T11:34:19;101263.09;;;27.16;33.50
9110;BME280;4590;51.462;6.692;2023-07-20T11:36:47;101261.06;;;27.10;33.48
9110;BME280;4590;51.462;6.692;2023-07-20T11:39:15;101265.94;;;26.95;33.62
9110;BME280;4590;51.462;6.692;2023-07-20T11:41:46;101260.69;;;26.86;33.48
9110;BME280;4590;51.462;6.692;2023-07-20T11:44:12;101264.72;;;26.78;33.86
9110;BME280;4590;51.462;6.692;2023-07-20T11:46:41;101264.75;;;26.71;34.31
9110;BME280;4590;51.462;6.692;2023-07-20T11:49:07;101248.19;;;26.66;34.26
9110;BME280;4590;51.462;6.692;2023-07-20T11:51:32;101257.50;;;26.56;33.84
9110;BME280;4590;51.462;6.692;2023-07-20T11:53:58;101249.81;;;26.39;33.86
9110;BME280;4590;51.462;6.692;2023-07-20T11:56:25;101259.44;;;26.24;34.16
9110;BME280;4590;51.462;6.692;2023-07-20T11:58:55;101247.72;;;26.14;34.24
9110;BME280;4590;51.462;6.692;2023-07-20T12:01:21;101245.34;;;26.13;34.20
9110;BME280;4590;51.462;6.692;2023-07-20T12:03:48;101244.94;;;26.11;34.52
9110;BME280;4590;51.462;6.692;2023-07-20T12:06:13;101241.69;;;26.19;35.07
9110;BME280;4590;51.462;6.692;2023-07-20T12:08:42;101245.75;;;26.26;34.72
9110;BME280;4590;51.462;6.692;2023-07-20T12:11:08;101243.78;;;26.37;33.97
9110;BME280;4590;51.462;6.692;2023-07-20T12:13:38;101236.13;;;26.44;34.14
9110;BME280;4590;51.462;6.692;2023-07-20T12:16:14;101242.53;;;26.45;34.21
9110;BME280;4590;51.462;6.692;2023-07-20T12:18:43;101240.53;;;26.49;33.78
9110;BME280;4590;51.462;6.692;2023-07-20T12:21:09;101247.78;;;26.46;34.44
9110;BME280;4590;51.462;6.692;2023-07-20T12:23:37;101245.38;;;26.45;34.82
9110;BME280;4590;51.462;6.692;2023-07-20T12:26:03;101245.00;;;26.43;34.50
9110;BME280;4590;51.462;6.692;2023-07-20T12:28:31;101238.13;;;26.40;34.84
9110;BME280;4590;51.462;6.692;2023-07-20T12:30:56;101238.94;;;26.34;33.74
9110;BME280;4590;51.462;6.692;2023-07-20T12:33:22;101225.25;;;26.29;34.10
9110;BME280;4590;51.462;6.692;2023-07-20T12:35:48;101228.41;;;26.20;33.90
9110;BME280;4590;51.462;6.692;2023-07-20T12:38:14;101230.41;;;26.09;34.18
9110;BME280;4590;51.462;6.692;2023-07-20T12:40:40;101220.34;;;25.97;34.42
9110;BME280;4590;51.462;6.692;2023-07-20T12:43:05;101224.34;;;25.93;35.12
9110;BME280;4590;51.462;6.692;2023-07-20T12:45:32;101223.94;;;25.91;35.03
9110;BME280;4590;51.462;6.692;2023-07-20T12:47:57;101225.94;;;25.90;34.51
9110;BME280;4590;51.462;6.692;2023-07-20T12:50:22;101215.88;;;25.89;34.75
9110;BME280;4590;51.462;6.692;2023-07-20T12:52:48;101222.69;;;25.84;35.05
9110;BME280;4590;51.462;6.692;2023-07-20T12:55:13;101223.09;;;25.86;35.11
9110;BME280;4590;51.462;6.692;2023-07-20T12:57:38;101221.91;;;25.88;34.70
9110;BME280;4590;51.462;6.692;2023-07-20T13:00:05;101217.91;;;25.92;34.72
9110;BME280;4590;51.462;6.692;2023-07-20T13:02:33;101219.91;;;25.99;34.59
9110;BME280;4590;51.462;6.692;2023-07-20T13:04:58;101216.28;;;26.02;34.92
9110;BME280;4590;51.462;6.692;2023-07-20T13:07:34;101215.47;;;25.98;34.67
9110;BME280;4590;51.462;6.692;2023-07-20T13:10:01;101210.66;;;26.02;35.06
9110;BME280;4590;51.462;6.692;2023-07-20T13:12:27;101213.06;;;25.96;35.13
9110;BME280;4590;51.462;6.692;2023-07-20T13:14:52;101211.03;;;25.86;34.62
9110;BME280;4590;51.462;6.692;2023-07-20T13:17:18;101206.56;;;25.74;34.55
9110;BME280;4590;51.462;6.692;2023-07-20T13:19:43;101205.72;;;25.67;35.18